Terminal Aerodrome Forecast
Issued by NWS Sioux Falls, SD

Home | Current Version | Previous Version | Text Only | Print | Product List | Glossary Off
Versions: 1 2 3 4 5 6 7 8 9 10 11 12 13 14

000
FTUS43 KFSD 300523
TAFSUX
TAF
KSUX 300523Z 3006/0106 08008KT P6SM OVC020
     FM300800 07013G20KT P6SM -RA OVC015
     FM301300 05016G26KT 3SM RA OVC007
     FM302200 05016KT 4SM -RA BR OVC010
     FM010300 03012KT 6SM -RA BR OVC015=

USA.gov is the U.S. government's official web portal to all federal, state and local government web resources and services.